sensor_id;sensor_type;location;lat;lon;timestamp;pressure;altitude;pressure_sealevel;temperature;humidity
44144;BME280;68165;51.920;4.492;2023-04-09T00:02:12;67094.44;;;11.17;100.00
44144;BME280;68165;51.920;4.492;2023-04-09T00:04:38;67096.13;;;11.18;100.00
44144;BME280;68165;51.920;4.492;2023-04-09T00:07:03;67097.44;;;11.15;100.00
44144;BME280;68165;51.920;4.492;2023-04-09T00:09:28;67092.19;;;11.15;100.00
44144;BME280;68165;51.920;4.492;2023-04-09T00:11:54;67091.47;;;11.12;100.00
44144;BME280;68165;51.920;4.492;2023-04-09T00:14:21;67080.72;;;10.99;100.00
44144;BME280;68165;51.920;4.492;2023-04-09T00:16:46;67091.47;;;11.12;100.00
44144;BME280;68165;51.920;4.492;2023-04-09T00:19:12;67087.59;;;11.08;100.00
44144;BME280;68165;51.920;4.492;2023-04-09T00:21:37;67088.13;;;11.09;100.00
44144;BME280;68165;51.920;4.492;2023-04-09T00:24:03;67084.78;;;11.05;100.00
44144;BME280;68165;51.920;4.492;2023-04-09T00:26:28;67085.50;;;11.09;100.00
44144;BME280;68165;51.920;4.492;2023-04-09T00:28:55;67084.97;;;11.08;100.00
44144;BME280;68165;51.920;4.492;2023-04-09T00:31:20;67088.31;;;11.11;100.00
44144;BME280;68165;51.920;4.492;2023-04-09T00:33:45;67095.22;;;11.13;100.00
44144;BME280;68165;51.920;4.492;2023-04-09T00:36:11;67087.75;;;11.11;100.00
44144;BME280;68165;51.920;4.492;2023-04-09T00:38:36;67092.03;;;11.12;100.00
44144;BME280;68165;51.920;4.492;2023-04-09T00:41:01;67076.59;;;11.00;100.00
44144;BME280;68165;51.920;4.492;2023-04-09T00:43:27;67096.91;;;11.14;100.00
44144;BME280;68165;51.920;4.492;2023-04-09T00:45:53;67089.97;;;11.13;100.00
44144;BME280;68165;51.920;4.492;2023-04-09T00:48:19;67084.78;;;11.05;100.00
44144;BME280;68165;51.920;4.492;2023-04-09T00:50:45;67087.03;;;11.08;100.00
44144;BME280;68165;51.920;4.492;2023-04-09T00:53:11;67089.97;;;11.13;100.00
44144;BME280;68165;51.920;4.492;2023-04-09T00:55:38;67096.91;;;11.14;100.00
44144;BME280;68165;51.920;4.492;2023-04-09T00:58:04;67086.94;;;11.15;100.00
44144;BME280;68165;51.920;4.492;2023-04-09T01:00:31;67089.97;;;11.13;100.00
44144;BME280;68165;51.920;4.492;2023-04-09T01:02:56;67092.44;;;11.10;100.00
44144;BME280;68165;51.920;4.492;2023-04-09T01:05:47;67091.09;;;11.14;100.00
44144;BME280;68165;51.920;4.492;2023-04-09T01:08:31;67091.09;;;11.14;100.00
44144;BME280;68165;51.920;4.492;2023-04-09T01:13:34;67092.03;;;11.12;100.00
44144;BME280;68165;51.920;4.492;2023-04-09T01:16:04;67077.72;;;11.01;100.00
44144;BME280;68165;51.920;4.492;2023-04-09T01:18:56;67084.97;;;11.08;100.00
44144;BME280;68165;51.920;4.492;2023-04-09T01:21:25;67082.53;;;11.03;100.00
44144;BME280;68165;51.920;4.492;2023-04-09T01:29:23;67074.34;;;10.98;100.00
44144;BME280;68165;51.920;4.492;2023-04-09T01:31:50;67073.22;;;10.97;100.00
44144;BME280;68165;51.920;4.492;2023-04-09T01:34:17;67079.78;;;11.01;100.00
44144;BME280;68165;51.920;4.492;2023-04-09T01:36:49;67079.94;;;11.03;100.00
44144;BME280;68165;51.920;4.492;2023-04-09T01:39:16;67076.97;;;10.98;100.00
44144;BME280;68165;51.920;4.492;2023-04-09T01:41:43;67081.59;;;11.05;100.00
44144;BME280;68165;51.920;4.492;2023-04-09T01:44:10;67081.59;;;11.05;100.00
44144;BME280;68165;51.920;4.492;2023-04-09T01:46:38;67083.09;;;11.04;100.00
44144;BME280;68165;51.920;4.492;2023-04-09T01:49:04;67085.50;;;11.09;100.00
44144;BME280;68165;51.920;4.492;2023-04-09T01:51:31;67078.81;;;11.02;100.00
44144;BME280;68165;51.920;4.492;2023-04-09T01:53:58;67081.03;;;11.04;100.00
44144;BME280;68165;51.920;4.492;2023-04-09T01:56:25;67076.59;;;11.00;100.00
44144;BME280;68165;51.920;4.492;2023-04-09T01:58:51;67080.47;;;11.04;100.00
44144;BME280;68165;51.920;4.492;2023-04-09T02:01:44;67084.22;;;11.05;100.00
44144;BME280;68165;51.920;4.492;2023-04-09T02:04:22;67086.63;;;11.10;100.00
44144;BME280;68165;51.920;4.492;2023-04-09T02:07:09;67083.84;;;11.07;100.00
44144;BME280;68165;51.920;4.492;2023-04-09T02:09:39;67083.50;;;11.02;100.00
44144;BME280;68165;51.920;4.492;2023-04-09T02:12:10;67081.03;;;11.04;100.00
44144;BME280;68165;51.920;4.492;2023-04-09T02:14:36;67077.16;;;11.01;100.00
44144;BME280;68165;51.920;4.492;2023-04-09T02:17:03;67086.28;;;11.04;100.00
44144;BME280;68165;51.920;4.492;2023-04-09T02:19:45;67078.66;;;11.00;100.00
44144;BME280;68165;51.920;4.492;2023-04-09T02:22:11;67078.25;;;11.02;100.00
44144;BME280;68165;51.920;4.492;2023-04-09T02:24:37;67081.03;;;11.04;100.00
44144;BME280;68165;51.920;4.492;2023-04-09T02:27:04;67089.81;;;11.10;100.00
44144;BME280;68165;51.920;4.492;2023-04-09T02:29:30;67084.97;;;11.08;100.00
44144;BME280;68165;51.920;4.492;2023-04-09T02:31:55;67100.81;;;11.18;100.00
44144;BME280;68165;51.920;4.492;2023-04-09T02:34:21;67095.38;;;11.15;100.00
44144;BME280;68165;51.920;4.492;2023-04-09T02:36:47;67101.88;;;11.26;100.00
44144;BME280;68165;51.920;4.492;2023-04-09T02:39:12;67116.97;;;11.32;100.00
44144;BME280;68165;51.920;4.492;2023-04-09T02:41:39;67112.84;;;11.33;100.00
44144;BME280;68165;51.920;4.492;2023-04-09T02:44:05;67117.34;;;11.37;100.00
44144;BME280;68165;51.920;4.492;2023-04-09T02:46:30;67131.66;;;11.48;100.00
44144;BME280;68165;51.920;4.492;2023-04-09T02:48:56;67129.81;;;11.44;100.00
44144;BME280;68165;51.920;4.492;2023-04-09T02:51:21;67142.13;;;11.55;100.00
44144;BME280;68165;51.920;4.492;2023-04-09T02:53:48;67142.28;;;11.58;100.00
44144;BME280;68165;51.920;4.492;2023-04-09T02:56:13;67141.38;;;11.52;100.00
44144;BME280;68165;51.920;4.492;2023-04-09T02:58:39;67145.06;;;11.60;100.00
44144;BME280;68165;51.920;4.492;2023-04-09T03:01:04;67163.34;;;11.74;100.00
44144;BME280;68165;51.920;4.492;2023-04-09T03:03:30;67156.22;;;11.70;100.00
44144;BME280;68165;51.920;4.492;2023-04-09T03:05:57;67162.94;;;11.76;100.00
44144;BME280;68165;51.920;4.492;2023-04-09T03:08:22;67170.78;;;11.83;100.00
44144;BME280;68165;51.920;4.492;2023-04-09T03:10:48;67172.84;;;11.83;100.00
44144;BME280;68165;51.920;4.492;2023-04-09T03:13:13;67169.25;;;11.84;100.00
44144;BME280;68165;51.920;4.492;2023-04-09T03:15:38;67172.28;;;11.82;100.00
44144;BME280;68165;51.920;4.492;2023-04-09T03:18:04;67171.50;;;11.86;100.00
44144;BME280;68165;51.920;4.492;2023-04-09T03:20:29;67166.31;;;11.79;100.00
44144;BME280;68165;51.920;4.492;2023-04-09T03:22:55;67175.22;;;11.88;100.00
44144;BME280;68165;51.920;4.492;2023-04-09T03:25:21;67168.88;;;11.86;100.00
44144;BME280;68165;51.920;4.492;2023-04-09T03:27:46;67154.72;;;11.71;100.00
44144;BME280;68165;51.920;4.492;2023-04-09T03:30:13;67161.66;;;11.73;100.00
44144;BME280;68165;51.920;4.492;2023-04-09T03:32:38;67169.25;;;11.84;100.00
44144;BME280;68165;51.920;4.492;2023-04-09T03:35:04;67164.63;;;11.78;100.00
44144;BME280;68165;51.920;4.492;2023-04-09T03:37:29;67173.72;;;11.89;100.00
44144;BME280;68165;51.920;4.492;2023-04-09T03:39:55;67163.69;;;11.79;100.00
44144;BME280;68165;51.920;4.492;2023-04-09T03:42:20;67174.53;;;11.84;100.00
44144;BME280;68165;51.920;4.492;2023-04-09T03:44:46;67176.19;;;11.86;100.00
44144;BME280;68165;51.920;4.492;2023-04-09T03:47:11;67178.03;;;11.90;100.00
44144;BME280;68165;51.920;4.492;2023-04-09T03:49:36;67176.53;;;11.91;100.00
44144;BME280;68165;51.920;4.492;2023-04-09T03:52:02;67183.78;;;11.98;100.00
44144;BME280;68165;51.920;4.492;2023-04-09T03:54:31;67186.41;;;11.98;99.97
44144;BME280;68165;51.920;4.492;2023-04-09T03:56:56;67189.03;;;11.98;99.48
44144;BME280;68165;51.920;4.492;2023-04-09T03:59:22;67192.38;;;12.01;99.47
44144;BME280;68165;51.920;4.492;2023-04-09T04:01:48;67185.84;;;11.97;99.55
44144;BME280;68165;51.920;4.492;2023-04-09T04:04:14;67182.66;;;11.97;99.64
44144;BME280;68165;51.920;4.492;2023-04-09T04:06:40;67183.78;;;11.98;99.61
44144;BME280;68165;51.920;4.492;2023-04-09T04:09:05;67190.88;;;12.02;99.15
44144;BME280;68165;51.920;4.492;2023-04-09T04:11:31;67190.16;;;11.99;99.16
44144;BME280;68165;51.920;4.492;2023-04-09T04:13:56;67184.88;;;11.99;98.97
44144;BME280;68165;51.920;4.492;2023-04-09T04:16:22;67188.63;;;12.00;98.59
44144;BME280;68165;51.920;4.492;2023-04-09T04:18:47;67190.47;;;12.04;99.16
44144;BME280;68165;51.920;4.492;2023-04-09T04:21:13;67200.53;;;12.13;98.50
44144;BME280;68165;51.920;4.492;2023-04-09T04:23:39;67199.41;;;12.12;98.60
44144;BME280;68165;51.920;4.492;2023-04-09T04:26:08;67199.59;;;12.14;98.27
44144;BME280;68165;51.920;4.492;2023-04-09T04:28:35;67199.59;;;12.14;97.98
44144;BME280;68165;51.920;4.492;2023-04-09T04:31:01;67202.22;;;12.14;97.98
44144;BME280;68165;51.920;4.492;2023-04-09T04:33:26;67205.97;;;12.15;97.99
44144;BME280;68165;51.920;4.492;2023-04-09T04:35:52;67206.13;;;12.18;97.97
44144;BME280;68165;51.920;4.492;2023-04-09T04:38:17;67211.53;;;12.20;97.60
44144;BME280;68165;51.920;4.492;2023-04-09T04:40:43;67207.78;;;12.19;97.92
44144;BME280;68165;51.920;4.492;2023-04-09T04:43:08;67205.00;;;12.17;97.77
44144;BME280;68165;51.920;4.492;2023-04-09T04:45:33;67210.56;;;12.22;97.79
44144;BME280;68165;51.920;4.492;2023-04-09T04:47:59;67198.53;;;12.06;97.68
44144;BME280;68165;51.920;4.492;2023-04-09T04:50:24;67216.19;;;12.27;97.38
44144;BME280;68165;51.920;4.492;2023-04-09T04:52:50;67207.78;;;12.19;97.13
44144;BME280;68165;51.920;4.492;2023-04-09T04:55:15;67215.22;;;12.28;97.30
44144;BME280;68165;51.920;4.492;2023-04-09T04:57:40;67211.38;;;12.18;96.92
44144;BME280;68165;51.920;4.492;2023-04-09T05:00:06;67203.50;;;12.18;96.95
44144;BME280;68165;51.920;4.492;2023-04-09T05:02:32;67218.81;;;12.27;96.47
44144;BME280;68165;51.920;4.492;2023-04-09T05:04:58;67218.41;;;12.29;96.70
44144;BME280;68165;51.920;4.492;2023-04-09T05:07:23;67215.63;;;12.26;96.56
44144;BME280;68165;51.920;4.492;2023-04-09T05:09:48;67207.78;;;12.19;96.87
44144;BME280;68165;51.920;4.492;2023-04-09T05:12:14;67203.16;;;12.13;96.44
44144;BME280;68165;51.920;4.492;2023-04-09T05:14:42;67223.84;;;12.32;96.29
44144;BME280;68165;51.920;4.492;2023-04-09T05:17:07;67215.44;;;12.24;96.01
44144;BME280;68165;51.920;4.492;2023-04-09T05:19:32;67217.28;;;12.28;96.53
44144;BME280;68165;51.920;4.492;2023-04-09T05:21:58;67221.59;;;12.30;95.96
44144;BME280;68165;51.920;4.492;2023-04-09T05:24:23;67215.63;;;12.26;95.70
44144;BME280;68165;51.920;4.492;2023-04-09T05:26:49;67211.69;;;12.23;95.89
44144;BME280;68165;51.920;4.492;2023-04-09T05:29:14;67221.22;;;12.32;95.50
44144;BME280;68165;51.920;4.492;2023-04-09T05:31:41;67212.81;;;12.24;95.59
44144;BME280;68165;51.920;4.492;2023-04-09T05:34:07;67218.00;;;12.31;95.55
44144;BME280;68165;51.920;4.492;2023-04-09T05:36:32;67231.25;;;12.41;95.40
44144;BME280;68165;51.920;4.492;2023-04-09T05:38:58;67237.25;;;12.44;95.19
44144;BME280;68165;51.920;4.492;2023-04-09T05:41:23;67229.75;;;12.42;95.33
44144;BME280;68165;51.920;4.492;2023-04-09T05:43:48;67223.97;;;12.34;95.18
44144;BME280;68165;51.920;4.492;2023-04-09T05:46:15;67227.91;;;12.38;95.57
44144;BME280;68165;51.920;4.492;2023-04-09T05:48:40;67228.06;;;12.40;95.40
44144;BME280;68165;51.920;4.492;2023-04-09T05:51:06;67229.03;;;12.39;95.54
44144;BME280;68165;51.920;4.492;2023-04-09T05:53:33;67229.59;;;12.39;95.52
44144;BME280;68165;51.920;4.492;2023-04-09T05:55:58;67234.44;;;12.41;95.63
44144;BME280;68165;51.920;4.492;2023-04-09T05:58:24;67230.88;;;12.43;95.55
44144;BME280;68165;51.920;4.492;2023-04-09T06:00:49;67240.59;;;12.47;95.02
44144;BME280;68165;51.920;4.492;2023-04-09T06:03:15;67238.91;;;12.45;95.07
44144;BME280;68165;51.920;4.492;2023-04-09T06:05:41;67249.19;;;12.50;95.16
44144;BME280;68165;51.920;4.492;2023-04-09T06:08:06;67238.50;;;12.47;94.91
44144;BME280;68165;51.920;4.492;2023-04-09T06:10:32;67237.81;;;12.44;95.30
44144;BME280;68165;51.920;4.492;2023-04-09T06:12:57;67242.25;;;12.48;95.53
44144;BME280;68165;51.920;4.492;2023-04-09T06:15:22;67242.44;;;12.51;95.35
44144;BME280;68165;51.920;4.492;2023-04-09T06:17:48;67251.78;;;12.57;95.32
44144;BME280;68165;51.920;4.492;2023-04-09T06:20:13;67244.91;;;12.48;95.12
44144;BME280;68165;51.920;4.492;2023-04-09T06:22:39;67248.22;;;12.51;95.30
44144;BME280;68165;51.920;4.492;2023-04-09T06:25:04;67244.72;;;12.46;95.04
44144;BME280;68165;51.920;4.492;2023-04-09T06:27:30;67234.06;;;12.43;95.35
44144;BME280;68165;51.920;4.492;2023-04-09T06:29:55;67236.50;;;12.41;95.29
44144;BME280;68165;51.920;4.492;2023-04-09T06:32:21;67247.69;;;12.51;95.84
44144;BME280;68165;51.920;4.492;2023-04-09T06:34:46;67242.97;;;12.51;95.53
44144;BME280;68165;51.920;4.492;2023-04-09T06:37:12;67241.31;;;12.50;95.39
44144;BME280;68165;51.920;4.492;2023-04-09T06:39:39;67244.66;;;12.53;95.32
44144;BME280;68165;51.920;4.492;2023-04-09T06:42:05;67248.97;;;12.54;95.47
44144;BME280;68165;51.920;4.492;2023-04-09T06:44:32;67248.97;;;12.54;95.32
44144;BME280;68165;51.920;4.492;2023-04-09T06:46:57;67259.44;;;12.61;95.31
44144;BME280;68165;51.920;4.492;2023-04-09T06:49:23;67250.66;;;12.56;94.68
44144;BME280;68165;51.920;4.492;2023-04-09T06:51:48;67257.19;;;12.59;94.74
44144;BME280;68165;51.920;4.492;2023-04-09T06:54:16;67259.44;;;12.61;94.68
44144;BME280;68165;51.920;4.492;2023-04-09T06:56:41;67248.59;;;12.56;94.62
44144;BME280;68165;51.920;4.492;2023-04-09T06:59:06;67256.06;;;12.58;94.69
44144;BME280;68165;51.920;4.492;2023-04-09T07:01:32;67268.34;;;12.69;94.73
44144;BME280;68165;51.920;4.492;2023-04-09T07:03:59;67259.75;;;12.66;94.46
44144;BME280;68165;51.920;4.492;2023-04-09T07:06:25;67271.72;;;12.73;94.15
44144;BME280;68165;51.920;4.492;2023-04-09T07:08:50;67270.78;;;12.74;94.21
44144;BME280;68165;51.920;4.492;2023-04-09T07:11:15;67269.25;;;12.75;93.93
44144;BME280;68165;51.920;4.492;2023-04-09T07:13:41;67268.69;;;12.75;94.00
44144;BME280;68165;51.920;4.492;2023-04-09T07:16:07;67274.84;;;12.80;93.89
44144;BME280;68165;51.920;4.492;2023-04-09T07:18:32;67279.69;;;12.82;94.11
44144;BME280;68165;51.920;4.492;2023-04-09T07:20:57;67277.47;;;12.80;93.84
44144;BME280;68165;51.920;4.492;2023-04-09T07:23:23;67283.63;;;12.86;94.08
44144;BME280;68165;51.920;4.492;2023-04-09T07:25:48;67281.00;;;12.86;93.39
44144;BME280;68165;51.920;4.492;2023-04-09T07:28:13;67281.56;;;12.86;93.29
44144;BME280;68165;51.920;4.492;2023-04-09T07:30:39;67273.56;;;12.77;93.84
44144;BME280;68165;51.920;4.492;2023-04-09T07:33:06;67269.66;;;12.73;93.74
44144;BME280;68165;51.920;4.492;2023-04-09T07:35:31;67262.00;;;12.68;93.58
44144;BME280;68165;51.920;4.492;2023-04-09T07:37:59;67259.19;;;12.66;93.68
44144;BME280;68165;51.920;4.492;2023-04-09T07:40:24;67272.84;;;12.74;93.35
44144;BME280;68165;51.920;4.492;2023-04-09T07:42:50;67271.31;;;12.75;92.99
44144;BME280;68165;51.920;4.492;2023-04-09T07:45:15;67272.44;;;12.76;92.23
44144;BME280;68165;51.920;4.492;2023-04-09T07:47:41;67270.34;;;12.76;92.58
44144;BME280;68165;51.920;4.492;2023-04-09T07:50:07;67266.84;;;12.71;91.80
44144;BME280;68165;51.920;4.492;2023-04-09T07:52:32;67276.19;;;12.77;91.67
44144;BME280;68165;51.920;4.492;2023-04-09T07:54:58;67269.25;;;12.75;91.22
44144;BME280;68165;51.920;4.492;2023-04-09T07:57:23;67268.13;;;12.74;91.16
44144;BME280;68165;51.920;4.492;2023-04-09T07:59:49;67265.34;;;12.72;91.16
44144;BME280;68165;51.920;4.492;2023-04-09T08:02:15;67272.03;;;12.78;90.91
44144;BME280;68165;51.920;4.492;2023-04-09T08:04:40;67266.28;;;12.70;90.12
44144;BME280;68165;51.920;4.492;2023-04-09T08:07:06;67253.84;;;12.56;91.01
44144;BME280;68165;51.920;4.492;2023-04-09T08:09:31;67262.00;;;12.68;91.43
44144;BME280;68165;51.920;4.492;2023-04-09T08:11:57;67264.22;;;12.71;91.40
44144;BME280;68165;51.920;4.492;2023-04-09T08:14:22;67270.22;;;12.74;91.07
44144;BME280;68165;51.920;4.492;2023-04-09T08:16:48;67267.56;;;12.74;90.87
44144;BME280;68165;51.920;4.492;2023-04-09T08:19:15;67269.25;;;12.75;90.84
44144;BME280;68165;51.920;4.492;2023-04-09T08:21:42;67277.47;;;12.80;90.39
44144;BME280;68165;51.920;4.492;2023-04-09T08:24:08;67277.84;;;12.78;90.24
44144;BME280;68165;51.920;4.492;2023-04-09T08:26:36;67271.66;;;12.80;90.67
44144;BME280;68165;51.920;4.492;2023-04-09T08:29:01;67270.59;;;12.72;90.17
44144;BME280;68165;51.920;4.492;2023-04-09T08:31:27;67260.88;;;12.67;89.39
44144;BME280;68165;51.920;4.492;2023-04-09T08:33:52;67264.78;;;12.71;89.02
44144;BME280;68165;51.920;4.492;2023-04-09T08:36:18;67275.41;;;12.81;88.98
44144;BME280;68165;51.920;4.492;2023-04-09T08:38:43;67283.44;;;12.83;89.20
44144;BME280;68165;51.920;4.492;2023-04-09T08:41:19;67281.38;;;12.84;89.26
44144;BME280;68165;51.920;4.492;2023-04-09T08:43:49;67283.06;;;12.85;89.10
44144;BME280;68165;51.920;4.492;2023-04-09T08:46:14;67279.31;;;12.84;88.50
44144;BME280;68165;51.920;4.492;2023-04-09T08:48:47;67282.66;;;12.87;89.03
44144;BME280;68165;51.920;4.492;2023-04-09T08:51:14;67284.34;;;12.89;88.51
44144;BME280;68165;51.920;4.492;2023-04-09T08:53:47;67283.94;;;12.91;87.81
44144;BME280;68165;51.920;4.492;2023-04-09T08:56:14;67286.00;;;12.90;87.94
44144;BME280;68165;51.920;4.492;2023-04-09T08:58:44;67287.69;;;12.92;88.02
44144;BME280;68165;51.920;4.492;2023-04-09T09:04:04;67300.00;;;13.03;87.84
44144;BME280;68165;51.920;4.492;2023-04-09T09:06:38;67305.56;;;13.08;87.16
44144;BME280;68165;51.920;4.492;2023-04-09T09:11:31;67311.00;;;13.11;86.77
44144;BME280;68165;51.920;4.492;2023-04-09T09:14:01;67313.81;;;13.13;86.42
44144;BME280;68165;51.920;4.492;2023-04-09T09:16:28;67311.00;;;13.11;85.92
44144;BME280;68165;51.920;4.492;2023-04-09T09:18:55;67310.81;;;13.15;85.99
44144;BME280;68165;51.920;4.492;2023-04-09T09:21:21;67325.16;;;13.26;85.58
44144;BME280;68165;51.920;4.492;2023-04-09T09:23:48;67334.34;;;13.29;85.68
44144;BME280;68165;51.920;4.492;2023-04-09T09:26:22;67333.94;;;13.31;85.04
44144;BME280;68165;51.920;4.492;2023-04-09T09:28:50;67341.78;;;13.38;84.45
44144;BME280;68165;51.920;4.492;2023-04-09T09:31:18;67350.31;;;13.48;84.10
44144;BME280;68165;51.920;4.492;2023-04-09T09:33:44;67355.53;;;13.56;83.90
44144;BME280;68165;51.920;4.492;2023-04-09T09:36:11;67370.44;;;13.67;83.81
44144;BME280;68165;51.920;4.492;2023-04-09T09:38:56;67386.13;;;13.81;83.04
44144;BME280;68165;51.920;4.492;2023-04-09T09:41:22;67390.25;;;13.80;82.24
44144;BME280;68165;51.920;4.492;2023-04-09T09:43:48;67386.13;;;13.81;81.92
44144;BME280;68165;51.920;4.492;2023-04-09T09:46:14;67385.25;;;13.75;81.74
44144;BME280;68165;51.920;4.492;2023-04-09T09:48:42;67392.28;;;13.86;81.44
44144;BME280;68165;51.920;4.492;2023-04-09T09:51:09;67397.31;;;13.91;80.68
44144;BME280;68165;51.920;4.492;2023-04-09T09:53:38;67412.41;;;14.05;80.10
44144;BME280;68165;51.920;4.492;2023-04-09T09:56:09;67429.19;;;14.20;79.69
44144;BME280;68165;51.920;4.492;2023-04-09T09:58:41;67443.81;;;14.26;79.22
44144;BME280;68165;51.920;4.492;2023-04-09T10:01:11;67445.97;;;14.35;78.53
44144;BME280;68165;51.920;4.492;2023-04-09T10:03:38;67448.00;;;14.42;77.72
44144;BME280;68165;51.920;4.492;2023-04-09T10:06:05;67468.94;;;14.56;76.93
44144;BME280;68165;51.920;4.492;2023-04-09T10:08:32;67494.69;;;14.79;76.36
44144;BME280;68165;51.920;4.492;2023-04-09T10:11:02;67502.53;;;14.86;75.63
44144;BME280;68165;51.920;4.492;2023-04-09T10:13:34;67511.47;;;14.94;75.02
44144;BME280;68165;51.920;4.492;2023-04-09T10:16:02;67506.44;;;14.90;74.28
44144;BME280;68165;51.920;4.492;2023-04-09T10:18:31;67514.28;;;14.97;73.81
44144;BME280;68165;51.920;4.492;2023-04-09T10:21:13;67528.66;;;15.07;73.41
44144;BME280;68165;51.920;4.492;2023-04-09T10:23:43;67547.16;;;15.24;72.67
44144;BME280;68165;51.920;4.492;2023-04-09T10:26:09;67564.50;;;15.40;71.85
44144;BME280;68165;51.920;4.492;2023-04-09T10:28:38;67584.88;;;15.61;70.39
44144;BME280;68165;51.920;4.492;2023-04-09T10:31:05;67601.34;;;15.71;69.02
44144;BME280;68165;51.920;4.492;2023-04-09T10:33:32;67607.13;;;15.78;67.47
44144;BME280;68165;51.920;4.492;2023-04-09T10:36:03;67584.88;;;15.61;67.77
44144;BME280;68165;51.920;4.492;2023-04-09T10:41:26;67633.59;;;16.05;65.97
44144;BME280;68165;51.920;4.492;2023-04-09T10:43:52;67643.28;;;16.16;65.97
44144;BME280;68165;51.920;4.492;2023-04-09T10:46:44;67662.19;;;16.30;65.21
44144;BME280;68165;51.920;4.492;2023-04-09T10:49:18;67671.00;;;16.36;64.91
44144;BME280;68165;51.920;4.492;2023-04-09T10:52:06;67664.66;;;16.28;64.53
44144;BME280;68165;51.920;4.492;2023-04-09T10:59:42;67726.25;;;16.91;63.04
44144;BME280;68165;51.920;4.492;2023-04-09T11:05:24;67754.97;;;17.09;61.37
44144;BME280;68165;51.920;4.492;2023-04-09T11:08:11;67735.94;;;17.02;61.64
44144;BME280;68165;51.920;4.492;2023-04-09T11:10:40;67763.28;;;17.24;61.33
44144;BME280;68165;51.920;4.492;2023-04-09T11:13:10;67778.97;;;17.38;60.17
44144;BME280;68165;51.920;4.492;2023-04-09T11:15:37;67781.63;;;17.38;59.98
44144;BME280;68165;51.920;4.492;2023-04-09T11:18:03;67779.38;;;17.36;60.15
44144;BME280;68165;51.920;4.492;2023-04-09T11:20:32;67774.59;;;17.27;60.13
44144;BME280;68165;51.920;4.492;2023-04-09T11:22:58;67733.00;;;16.97;60.34
44144;BME280;68165;51.920;4.492;2023-04-09T11:25:29;67749.09;;;17.09;60.59
44144;BME280;68165;51.920;4.492;2023-04-09T11:27:55;67754.16;;;17.13;60.51
44144;BME280;68165;51.920;4.492;2023-04-09T11:30:20;67758.31;;;17.12;59.84
44144;BME280;68165;51.920;4.492;2023-04-09T11:32:47;67776.41;;;17.31;59.91
44144;BME280;68165;51.920;4.492;2023-04-09T11:35:14;67783.47;;;17.42;59.48
44144;BME280;68165;51.920;4.492;2023-04-09T11:37:41;67799.97;;;17.52;59.18
44144;BME280;68165;51.920;4.492;2023-04-09T11:40:19;67799.19;;;17.57;58.74
44144;BME280;68165;51.920;4.492;2023-04-09T11:42:48;67808.25;;;17.58;58.04
44144;BME280;68165;51.920;4.492;2023-04-09T11:45:14;67786.13;;;17.42;58.61
44144;BME280;68165;51.920;4.492;2023-04-09T11:47:40;67756.06;;;17.10;58.83
44144;BME280;68165;51.920;4.492;2023-04-09T11:50:08;67756.41;;;17.16;58.20
44144;BME280;68165;51.920;4.492;2023-04-09T11:52:34;67754.16;;;17.13;59.09
44144;BME280;68165;51.920;4.492;2023-04-09T11:55:07;67782.03;;;17.36;59.36
44144;BME280;68165;51.920;4.492;2023-04-09T11:57:44;67780.25;;;17.42;58.73
44144;BME280;68165;51.920;4.492;2023-04-09T12:00:12;67782.75;;;17.39;58.35
44144;BME280;68165;51.920;4.492;2023-04-09T12:02:43;67801.25;;;17.56;57.85
44144;BME280;68165;51.920;4.492;2023-04-09T12:05:19;67792.28;;;17.48;57.56
44144;BME280;68165;51.920;4.492;2023-04-09T12:07:44;67794.53;;;17.50;57.33
44144;BME280;68165;51.920;4.492;2023-04-09T12:10:10;67793.41;;;17.49;57.63
44144;BME280;68165;51.920;4.492;2023-04-09T12:12:43;67788.38;;;17.44;58.13
44144;BME280;68165;51.920;4.492;2023-04-09T12:15:23;67798.44;;;17.53;57.89
44144;BME280;68165;51.920;4.492;2023-04-09T12:17:53;67797.59;;;17.48;57.82
44144;BME280;68165;51.920;4.492;2023-04-09T12:22:52;67767.59;;;17.26;58.44
44144;BME280;68165;51.920;4.492;2023-04-09T12:25:17;67755.66;;;17.12;58.51
44144;BME280;68165;51.920;4.492;2023-04-09T12:27:42;67755.84;;;17.15;59.14
44144;BME280;68165;51.920;4.492;2023-04-09T12:30:08;67776.59;;;17.34;58.88
44144;BME280;68165;51.920;4.492;2023-04-09T12:32:35;67779.94;;;17.37;58.26
44144;BME280;68165;51.920;4.492;2023-04-09T12:35:01;67777.38;;;17.30;58.10
44144;BME280;68165;51.920;4.492;2023-04-09T12:37:27;67788.38;;;17.44;57.88
44144;BME280;68165;51.920;4.492;2023-04-09T12:39:53;67826.94;;;17.77;57.01
44144;BME280;68165;51.920;4.492;2023-04-09T12:42:18;67846.16;;;17.97;56.13
44144;BME280;68165;51.920;4.492;2023-04-09T12:44:44;67855.16;;;18.05;55.70
44144;BME280;68165;51.920;4.492;2023-04-09T12:47:09;67871.69;;;18.15;55.15
44144;BME280;68165;51.920;4.492;2023-04-09T12:49:34;67880.25;;;18.25;54.48
44144;BME280;68165;51.920;4.492;2023-04-09T12:52:00;67900.31;;;18.41;53.94
44144;BME280;68165;51.920;4.492;2023-04-09T12:54:25;67897.81;;;18.43;53.45
44144;BME280;68165;51.920;4.492;2023-04-09T12:56:51;67909.22;;;18.56;53.26
44144;BME280;68165;51.920;4.492;2023-04-09T12:59:16;67912.44;;;18.56;53.04
44144;BME280;68165;51.920;4.492;2023-04-09T13:01:41;67926.47;;;18.69;52.72
44144;BME280;68165;51.920;4.492;2023-04-09T13:04:07;67936.44;;;18.75;52.67
44144;BME280;68165;51.920;4.492;2023-04-09T13:06:32;67919.16;;;18.62;52.51
44144;BME280;68165;51.920;4.492;2023-04-09T13:08:57;67914.41;;;18.63;51.96
44144;BME280;68165;51.920;4.492;2023-04-09T13:11:23;67913.00;;;18.57;52.38
44144;BME280;68165;51.920;4.492;2023-04-09T13:13:48;67897.25;;;18.43;52.35
44144;BME280;68165;51.920;4.492;2023-04-09T13:16:14;67905.84;;;18.53;52.29
44144;BME280;68165;51.920;4.492;2023-04-09T13:18:40;67918.31;;;18.57;52.21
44144;BME280;68165;51.920;4.492;2023-04-09T13:21:07;67912.25;;;18.54;51.98
44144;BME280;68165;51.920;4.492;2023-04-09T13:23:32;67928.16;;;18.70;52.03
44144;BME280;68165;51.920;4.492;2023-04-09T13:25:59;67957.63;;;18.92;51.55